sensor_id;sensor_type;location;lat;lon;timestamp;temperature;humidity
22779;DHT22;11556;51.194;3.800;2024-02-21T00:01:39;9.70;99.90
22779;DHT22;11556;51.194;3.800;2024-02-21T00:04:05;9.80;99.90
22779;DHT22;11556;51.194;3.800;2024-02-21T00:06:31;9.70;99.90
22779;DHT22;11556;51.194;3.800;2024-02-21T00:08:57;9.80;99.90
22779;DHT22;11556;51.194;3.800;2024-02-21T00:11:23;9.80;99.90
22779;DHT22;11556;51.194;3.800;2024-02-21T00:13:49;9.80;99.90
22779;DHT22;11556;51.194;3.800;2024-02-21T00:16:16;9.80;99.90
22779;DHT22;11556;51.194;3.800;2024-02-21T00:18:42;9.80;99.90
22779;DHT22;11556;51.194;3.800;2024-02-21T00:21:07;9.70;99.90
22779;DHT22;11556;51.194;3.800;2024-02-21T00:23:33;9.80;99.90
22779;DHT22;11556;51.194;3.800;2024-02-21T00:26:00;9.80;99.90
22779;DHT22;11556;51.194;3.800;2024-02-21T00:28:26;9.90;99.90
22779;DHT22;11556;51.194;3.800;2024-02-21T00:30:51;10.00;99.90
22779;DHT22;11556;51.194;3.800;2024-02-21T00:33:18;10.00;99.90
22779;DHT22;11556;51.194;3.800;2024-02-21T00:35:44;10.00;99.90
22779;DHT22;11556;51.194;3.800;2024-02-21T00:38:10;9.90;99.90
22779;DHT22;11556;51.194;3.800;2024-02-21T00:40:35;10.00;99.90
22779;DHT22;11556;51.194;3.800;2024-02-21T00:43:01;9.90;99.90
22779;DHT22;11556;51.194;3.800;2024-02-21T00:45:27;9.90;99.90
22779;DHT22;11556;51.194;3.800;2024-02-21T00:47:52;9.90;99.90
22779;DHT22;11556;51.194;3.800;2024-02-21T00:50:18;9.90;99.90
22779;DHT22;11556;51.194;3.800;2024-02-21T00:52:44;9.90;99.90
22779;DHT22;11556;51.194;3.800;2024-02-21T00:55:10;10.00;99.90
22779;DHT22;11556;51.194;3.800;2024-02-21T00:57:36;10.00;99.90
22779;DHT22;11556;51.194;3.800;2024-02-21T01:00:03;9.90;99.90
22779;DHT22;11556;51.194;3.800;2024-02-21T01:02:29;9.90;99.90
22779;DHT22;11556;51.194;3.800;2024-02-21T01:04:57;10.00;99.90
22779;DHT22;11556;51.194;3.800;2024-02-21T01:07:23;10.00;99.90
22779;DHT22;11556;51.194;3.800;2024-02-21T01:09:48;10.00;99.90
22779;DHT22;11556;51.194;3.800;2024-02-21T01:12:16;9.90;99.90
22779;DHT22;11556;51.194;3.800;2024-02-21T01:14:42;10.00;99.90
22779;DHT22;11556;51.194;3.800;2024-02-21T01:17:08;10.00;99.90
22779;DHT22;11556;51.194;3.800;2024-02-21T01:19:33;10.10;99.90
22779;DHT22;11556;51.194;3.800;2024-02-21T01:21:59;10.10;99.90
22779;DHT22;11556;51.194;3.800;2024-02-21T01:24:25;10.10;99.90
22779;DHT22;11556;51.194;3.800;2024-02-21T01:26:50;10.10;99.90
22779;DHT22;11556;51.194;3.800;2024-02-21T01:29:16;10.10;99.90
22779;DHT22;11556;51.194;3.800;2024-02-21T01:31:42;10.10;99.90
22779;DHT22;11556;51.194;3.800;2024-02-21T01:34:07;10.20;99.90
22779;DHT22;11556;51.194;3.800;2024-02-21T01:36:33;10.20;99.90
22779;DHT22;11556;51.194;3.800;2024-02-21T01:38:59;10.20;99.90
22779;DHT22;11556;51.194;3.800;2024-02-21T01:41:24;10.20;99.90
22779;DHT22;11556;51.194;3.800;2024-02-21T01:43:50;10.20;99.90
22779;DHT22;11556;51.194;3.800;2024-02-21T01:46:16;10.20;99.90
22779;DHT22;11556;51.194;3.800;2024-02-21T01:48:41;10.20;99.90
22779;DHT22;11556;51.194;3.800;2024-02-21T01:51:07;10.20;99.90
22779;DHT22;11556;51.194;3.800;2024-02-21T01:53:37;10.20;99.90
22779;DHT22;11556;51.194;3.800;2024-02-21T01:56:03;10.10;99.90
22779;DHT22;11556;51.194;3.800;2024-02-21T01:58:31;10.20;99.90
22779;DHT22;11556;51.194;3.800;2024-02-21T02:00:57;10.10;99.90
22779;DHT22;11556;51.194;3.800;2024-02-21T02:03:23;10.10;99.90
22779;DHT22;11556;51.194;3.800;2024-02-21T02:05:51;10.10;99.90
22779;DHT22;11556;51.194;3.800;2024-02-21T02:08:20;10.00;99.90
22779;DHT22;11556;51.194;3.800;2024-02-21T02:10:49;9.90;99.90
22779;DHT22;11556;51.194;3.800;2024-02-21T02:13:15;10.00;99.90
22779;DHT22;11556;51.194;3.800;2024-02-21T02:15:43;10.00;99.90
22779;DHT22;11556;51.194;3.800;2024-02-21T02:18:10;10.00;99.90
22779;DHT22;11556;51.194;3.800;2024-02-21T02:20:36;10.10;99.90
22779;DHT22;11556;51.194;3.800;2024-02-21T02:23:09;10.20;99.90
22779;DHT22;11556;51.194;3.800;2024-02-21T02:25:36;10.30;99.90
22779;DHT22;11556;51.194;3.800;2024-02-21T02:28:05;10.30;99.90
22779;DHT22;11556;51.194;3.800;2024-02-21T02:30:35;10.20;99.90
22779;DHT22;11556;51.194;3.800;2024-02-21T02:33:04;10.20;99.90
22779;DHT22;11556;51.194;3.800;2024-02-21T02:35:29;10.30;99.90
22779;DHT22;11556;51.194;3.800;2024-02-21T02:37:55;10.20;99.90
22779;DHT22;11556;51.194;3.800;2024-02-21T02:40:21;10.10;99.90
22779;DHT22;11556;51.194;3.800;2024-02-21T02:42:47;10.10;99.90
22779;DHT22;11556;51.194;3.800;2024-02-21T02:45:14;10.00;99.90
22779;DHT22;11556;51.194;3.800;2024-02-21T02:47:40;10.00;99.90
22779;DHT22;11556;51.194;3.800;2024-02-21T02:50:07;9.90;99.90
22779;DHT22;11556;51.194;3.800;2024-02-21T02:52:32;10.00;99.90
22779;DHT22;11556;51.194;3.800;2024-02-21T02:54:58;10.00;99.90
22779;DHT22;11556;51.194;3.800;2024-02-21T02:57:24;10.00;99.90
22779;DHT22;11556;51.194;3.800;2024-02-21T02:59:50;10.00;99.90
22779;DHT22;11556;51.194;3.800;2024-02-21T03:02:17;10.10;99.90
22779;DHT22;11556;51.194;3.800;2024-02-21T03:04:43;10.10;99.90
22779;DHT22;11556;51.194;3.800;2024-02-21T03:07:09;10.10;99.90
22779;DHT22;11556;51.194;3.800;2024-02-21T03:09:37;10.20;99.90
22779;DHT22;11556;51.194;3.800;2024-02-21T03:12:03;10.20;99.90
22779;DHT22;11556;51.194;3.800;2024-02-21T03:14:29;10.10;99.90
22779;DHT22;11556;51.194;3.800;2024-02-21T03:16:55;10.20;99.90
22779;DHT22;11556;51.194;3.800;2024-02-21T03:19:21;10.30;99.90
22779;DHT22;11556;51.194;3.800;2024-02-21T03:21:48;10.30;99.90
22779;DHT22;11556;51.194;3.800;2024-02-21T03:24:21;10.20;99.90
22779;DHT22;11556;51.194;3.800;2024-02-21T03:26:47;10.20;99.90
22779;DHT22;11556;51.194;3.800;2024-02-21T03:29:14;10.10;99.90
22779;DHT22;11556;51.194;3.800;2024-02-21T03:31:41;10.10;99.90
22779;DHT22;11556;51.194;3.800;2024-02-21T03:34:06;10.10;99.90
22779;DHT22;11556;51.194;3.800;2024-02-21T03:36:32;10.10;99.90
22779;DHT22;11556;51.194;3.800;2024-02-21T03:38:57;10.00;99.90
22779;DHT22;11556;51.194;3.800;2024-02-21T03:41:23;9.90;99.90
22779;DHT22;11556;51.194;3.800;2024-02-21T03:43:49;10.00;99.90
22779;DHT22;11556;51.194;3.800;2024-02-21T03:46:15;9.90;99.90
22779;DHT22;11556;51.194;3.800;2024-02-21T03:48:40;10.00;99.90
22779;DHT22;11556;51.194;3.800;2024-02-21T03:51:06;10.00;99.90
22779;DHT22;11556;51.194;3.800;2024-02-21T03:53:32;10.10;99.90
22779;DHT22;11556;51.194;3.800;2024-02-21T03:56:01;10.00;99.90
22779;DHT22;11556;51.194;3.800;2024-02-21T03:58:32;10.00;99.90
22779;DHT22;11556;51.194;3.800;2024-02-21T04:01:00;9.90;99.90
22779;DHT22;11556;51.194;3.800;2024-02-21T04:03:27;10.00;99.90
22779;DHT22;11556;51.194;3.800;2024-02-21T04:05:52;10.00;99.90
22779;DHT22;11556;51.194;3.800;2024-02-21T04:08:18;10.00;99.90
22779;DHT22;11556;51.194;3.800;2024-02-21T04:10:44;10.00;99.90
22779;DHT22;11556;51.194;3.800;2024-02-21T04:13:10;10.00;99.90
22779;DHT22;11556;51.194;3.800;2024-02-21T04:15:36;10.00;99.90
22779;DHT22;11556;51.194;3.800;2024-02-21T04:18:02;10.00;99.90
22779;DHT22;11556;51.194;3.800;2024-02-21T04:20:28;10.10;99.90
22779;DHT22;11556;51.194;3.800;2024-02-21T04:22:54;9.90;99.90
22779;DHT22;11556;51.194;3.800;2024-02-21T04:25:20;10.10;99.90
22779;DHT22;11556;51.194;3.800;2024-02-21T04:27:46;10.00;99.90
22779;DHT22;11556;51.194;3.800;2024-02-21T04:30:12;10.10;99.90
22779;DHT22;11556;51.194;3.800;2024-02-21T04:32:38;10.10;99.90
22779;DHT22;11556;51.194;3.800;2024-02-21T04:35:04;10.00;99.90
22779;DHT22;11556;51.194;3.800;2024-02-21T04:37:29;10.00;99.90
22779;DHT22;11556;51.194;3.800;2024-02-21T04:39:56;9.90;99.90
22779;DHT22;11556;51.194;3.800;2024-02-21T04:42:21;9.90;99.90
22779;DHT22;11556;51.194;3.800;2024-02-21T04:44:47;9.90;99.90
22779;DHT22;11556;51.194;3.800;2024-02-21T04:47:13;9.90;99.90
22779;DHT22;11556;51.194;3.800;2024-02-21T04:49:38;9.90;99.90
22779;DHT22;11556;51.194;3.800;2024-02-21T04:52:04;9.90;99.90
22779;DHT22;11556;51.194;3.800;2024-02-21T04:54:30;9.80;99.90
22779;DHT22;11556;51.194;3.800;2024-02-21T04:56:56;9.80;99.90
22779;DHT22;11556;51.194;3.800;2024-02-21T04:59:21;9.80;99.90
22779;DHT22;11556;51.194;3.800;2024-02-21T05:01:47;9.80;99.90
22779;DHT22;11556;51.194;3.800;2024-02-21T05:04:12;9.80;99.90
22779;DHT22;11556;51.194;3.800;2024-02-21T05:06:41;9.70;99.90
22779;DHT22;11556;51.194;3.800;2024-02-21T05:09:09;9.70;99.90
22779;DHT22;11556;51.194;3.800;2024-02-21T05:11:36;9.70;99.90
22779;DHT22;11556;51.194;3.800;2024-02-21T05:14:02;9.80;99.90
22779;DHT22;11556;51.194;3.800;2024-02-21T05:16:29;9.90;99.90
22779;DHT22;11556;51.194;3.800;2024-02-21T05:18:54;9.80;99.90
22779;DHT22;11556;51.194;3.800;2024-02-21T05:21:23;9.80;99.90
22779;DHT22;11556;51.194;3.800;2024-02-21T05:23:49;9.80;99.90
22779;DHT22;11556;51.194;3.800;2024-02-21T05:26:25;9.80;99.90
22779;DHT22;11556;51.194;3.800;2024-02-21T05:28:51;9.70;99.90
22779;DHT22;11556;51.194;3.800;2024-02-21T05:31:20;9.70;99.90
22779;DHT22;11556;51.194;3.800;2024-02-21T05:33:47;9.70;99.90
22779;DHT22;11556;51.194;3.800;2024-02-21T05:36:13;9.70;99.90
22779;DHT22;11556;51.194;3.800;2024-02-21T05:38:39;9.80;99.90
22779;DHT22;11556;51.194;3.800;2024-02-21T05:41:05;9.80;99.90
22779;DHT22;11556;51.194;3.800;2024-02-21T05:43:31;9.90;99.90
22779;DHT22;11556;51.194;3.800;2024-02-21T05:45:57;9.80;99.90
22779;DHT22;11556;51.194;3.800;2024-02-21T05:48:23;9.80;99.90
22779;DHT22;11556;51.194;3.800;2024-02-21T05:50:49;9.80;99.90
22779;DHT22;11556;51.194;3.800;2024-02-21T05:53:15;9.80;99.90
22779;DHT22;11556;51.194;3.800;2024-02-21T05:55:40;9.80;99.90
22779;DHT22;11556;51.194;3.800;2024-02-21T05:58:06;9.90;99.90
22779;DHT22;11556;51.194;3.800;2024-02-21T06:00:32;9.80;99.90
22779;DHT22;11556;51.194;3.800;2024-02-21T06:02:58;9.70;99.90
22779;DHT22;11556;51.194;3.800;2024-02-21T06:05:24;9.80;99.90
22779;DHT22;11556;51.194;3.800;2024-02-21T06:07:50;9.80;99.90
22779;DHT22;11556;51.194;3.800;2024-02-21T06:10:16;9.70;99.90
22779;DHT22;11556;51.194;3.800;2024-02-21T06:12:42;9.80;99.90
22779;DHT22;11556;51.194;3.800;2024-02-21T06:15:07;9.80;99.90
22779;DHT22;11556;51.194;3.800;2024-02-21T06:17:33;9.80;99.90
22779;DHT22;11556;51.194;3.800;2024-02-21T06:19:59;9.80;99.90
22779;DHT22;11556;51.194;3.800;2024-02-21T06:22:25;9.90;99.90
22779;DHT22;11556;51.194;3.800;2024-02-21T06:24:50;9.90;99.90
22779;DHT22;11556;51.194;3.800;2024-02-21T06:27:16;9.90;99.90
22779;DHT22;11556;51.194;3.800;2024-02-21T06:29:42;9.90;99.90
22779;DHT22;11556;51.194;3.800;2024-02-21T06:32:08;9.80;99.90
22779;DHT22;11556;51.194;3.800;2024-02-21T06:34:34;9.80;99.90
22779;DHT22;11556;51.194;3.800;2024-02-21T06:36:59;9.80;99.90
22779;DHT22;11556;51.194;3.800;2024-02-21T06:39:25;9.80;99.90
22779;DHT22;11556;51.194;3.800;2024-02-21T06:41:51;9.90;99.90
22779;DHT22;11556;51.194;3.800;2024-02-21T06:44:18;9.90;99.90
22779;DHT22;11556;51.194;3.800;2024-02-21T06:46:43;9.90;99.90
22779;DHT22;11556;51.194;3.800;2024-02-21T06:49:09;9.90;99.90
22779;DHT22;11556;51.194;3.800;2024-02-21T06:51:41;9.90;99.90
22779;DHT22;11556;51.194;3.800;2024-02-21T06:54:08;9.80;99.90
22779;DHT22;11556;51.194;3.800;2024-02-21T06:56:33;9.90;99.90
22779;DHT22;11556;51.194;3.800;2024-02-21T06:58:59;9.80;99.90
22779;DHT22;11556;51.194;3.800;2024-02-21T07:01:24;9.90;99.90
22779;DHT22;11556;51.194;3.800;2024-02-21T07:03:50;9.90;99.90
22779;DHT22;11556;51.194;3.800;2024-02-21T07:06:16;10.10;99.90
22779;DHT22;11556;51.194;3.800;2024-02-21T07:08:42;10.10;99.90
22779;DHT22;11556;51.194;3.800;2024-02-21T07:11:07;10.20;99.90
22779;DHT22;11556;51.194;3.800;2024-02-21T07:13:33;10.30;99.90
22779;DHT22;11556;51.194;3.800;2024-02-21T07:15:59;10.30;99.90
22779;DHT22;11556;51.194;3.800;2024-02-21T07:18:24;10.40;99.90
22779;DHT22;11556;51.194;3.800;2024-02-21T07:20:53;10.40;99.90
22779;DHT22;11556;51.194;3.800;2024-02-21T07:23:19;10.50;99.90
22779;DHT22;11556;51.194;3.800;2024-02-21T07:25:44;10.40;99.90
22779;DHT22;11556;51.194;3.800;2024-02-21T07:28:10;10.40;99.90
22779;DHT22;11556;51.194;3.800;2024-02-21T07:30:36;10.50;99.90
22779;DHT22;11556;51.194;3.800;2024-02-21T07:33:02;10.40;99.90
22779;DHT22;11556;51.194;3.800;2024-02-21T07:35:27;10.50;99.90
22779;DHT22;11556;51.194;3.800;2024-02-21T07:37:53;10.50;99.90
22779;DHT22;11556;51.194;3.800;2024-02-21T07:40:19;10.50;99.90
22779;DHT22;11556;51.194;3.800;2024-02-21T07:42:44;10.50;99.90
22779;DHT22;11556;51.194;3.800;2024-02-21T07:45:10;10.60;99.90
22779;DHT22;11556;51.194;3.800;2024-02-21T07:47:36;10.50;99.90
22779;DHT22;11556;51.194;3.800;2024-02-21T07:50:03;10.50;99.90
22779;DHT22;11556;51.194;3.800;2024-02-21T07:52:29;10.40;99.90
22779;DHT22;11556;51.194;3.800;2024-02-21T07:54:54;10.50;99.90
22779;DHT22;11556;51.194;3.800;2024-02-21T07:57:20;10.40;99.90
22779;DHT22;11556;51.194;3.800;2024-02-21T07:59:46;10.50;99.90
22779;DHT22;11556;51.194;3.800;2024-02-21T08:02:15;10.50;99.90
22779;DHT22;11556;51.194;3.800;2024-02-21T08:04:41;10.40;99.90
22779;DHT22;11556;51.194;3.800;2024-02-21T08:07:06;10.40;99.90
22779;DHT22;11556;51.194;3.800;2024-02-21T08:09:32;10.50;99.90
22779;DHT22;11556;51.194;3.800;2024-02-21T08:11:58;10.50;99.90
22779;DHT22;11556;51.194;3.800;2024-02-21T08:14:24;10.50;99.90
22779;DHT22;11556;51.194;3.800;2024-02-21T08:16:51;10.40;99.90
22779;DHT22;11556;51.194;3.800;2024-02-21T08:19:19;10.50;99.90
22779;DHT22;11556;51.194;3.800;2024-02-21T08:21:44;10.50;99.90
22779;DHT22;11556;51.194;3.800;2024-02-21T08:24:15;10.40;99.90
22779;DHT22;11556;51.194;3.800;2024-02-21T08:26:41;10.30;99.90
22779;DHT22;11556;51.194;3.800;2024-02-21T08:29:07;10.40;99.90
22779;DHT22;11556;51.194;3.800;2024-02-21T08:31:33;10.50;99.90
22779;DHT22;11556;51.194;3.800;2024-02-21T08:34:00;10.40;99.90
22779;DHT22;11556;51.194;3.800;2024-02-21T08:36:35;10.30;99.90
22779;DHT22;11556;51.194;3.800;2024-02-21T08:39:01;10.30;99.90
22779;DHT22;11556;51.194;3.800;2024-02-21T08:41:31;10.50;99.90
22779;DHT22;11556;51.194;3.800;2024-02-21T08:43:56;10.40;99.90
22779;DHT22;11556;51.194;3.800;2024-02-21T08:46:23;10.40;99.90
22779;DHT22;11556;51.194;3.800;2024-02-21T08:48:52;10.40;99.90
22779;DHT22;11556;51.194;3.800;2024-02-21T08:51:18;10.40;99.90
22779;DHT22;11556;51.194;3.800;2024-02-21T08:53:44;10.30;99.90
22779;DHT22;11556;51.194;3.800;2024-02-21T08:56:10;10.30;99.90
22779;DHT22;11556;51.194;3.800;2024-02-21T08:58:36;10.30;99.90
22779;DHT22;11556;51.194;3.800;2024-02-21T09:01:04;10.30;99.90
22779;DHT22;11556;51.194;3.800;2024-02-21T09:03:33;10.40;99.90
22779;DHT22;11556;51.194;3.800;2024-02-21T09:05:59;10.60;99.90
22779;DHT22;11556;51.194;3.800;2024-02-21T09:08:26;10.50;99.90
22779;DHT22;11556;51.194;3.800;2024-02-21T09:10:52;10.50;99.90
22779;DHT22;11556;51.194;3.800;2024-02-21T09:13:17;10.50;99.90
22779;DHT22;11556;51.194;3.800;2024-02-21T09:15:43;10.50;99.90
22779;DHT22;11556;51.194;3.800;2024-02-21T09:18:09;10.50;99.90
22779;DHT22;11556;51.194;3.800;2024-02-21T09:20:35;10.40;99.90
22779;DHT22;11556;51.194;3.800;2024-02-21T09:23:01;10.30;99.90
22779;DHT22;11556;51.194;3.800;2024-02-21T09:25:26;10.20;99.90
22779;DHT22;11556;51.194;3.800;2024-02-21T09:27:54;10.30;99.90
22779;DHT22;11556;51.194;3.800;2024-02-21T09:30:19;10.30;99.90
22779;DHT22;11556;51.194;3.800;2024-02-21T09:32:45;10.40;99.90
22779;DHT22;11556;51.194;3.800;2024-02-21T09:35:13;10.50;99.90
22779;DHT22;11556;51.194;3.800;2024-02-21T09:37:39;10.70;99.90
22779;DHT22;11556;51.194;3.800;2024-02-21T09:40:05;10.70;99.90
22779;DHT22;11556;51.194;3.800;2024-02-21T09:42:39;10.80;99.90
22779;DHT22;11556;51.194;3.800;2024-02-21T09:45:13;11.00;99.90
22779;DHT22;11556;51.194;3.800;2024-02-21T09:48:33;10.90;99.90
22779;DHT22;11556;51.194;3.800;2024-02-21T09:50:51;10.90;99.90
22779;DHT22;11556;51.194;3.800;2024-02-21T09:53:18;10.90;99.90
22779;DHT22;11556;51.194;3.800;2024-02-21T09:55:45;10.90;99.90
22779;DHT22;11556;51.194;3.800;2024-02-21T09:58:12;10.80;99.90
22779;DHT22;11556;51.194;3.800;2024-02-21T10:00:38;10.90;99.90
22779;DHT22;11556;51.194;3.800;2024-02-21T10:03:04;10.90;99.90
22779;DHT22;11556;51.194;3.800;2024-02-21T10:05:36;10.90;99.90
22779;DHT22;11556;51.194;3.800;2024-02-21T10:08:03;11.00;99.90
22779;DHT22;11556;51.194;3.800;2024-02-21T10:10:29;11.00;99.90
22779;DHT22;11556;51.194;3.800;2024-02-21T10:12:56;10.80;99.90
22779;DHT22;11556;51.194;3.800;2024-02-21T10:15:22;10.90;99.90
22779;DHT22;11556;51.194;3.800;2024-02-21T10:17:49;11.00;99.90
22779;DHT22;11556;51.194;3.800;2024-02-21T10:20:15;11.20;99.90
22779;DHT22;11556;51.194;3.800;2024-02-21T10:22:42;11.30;99.90
22779;DHT22;11556;51.194;3.800;2024-02-21T10:25:11;11.30;99.90
22779;DHT22;11556;51.194;3.800;2024-02-21T10:27:38;11.50;99.90
22779;DHT22;11556;51.194;3.800;2024-02-21T10:30:13;11.30;99.90
22779;DHT22;11556;51.194;3.800;2024-02-21T10:32:53;11.30;99.90
22779;DHT22;11556;51.194;3.800;2024-02-21T10:35:31;11.20;99.90
22779;DHT22;11556;51.194;3.800;2024-02-21T10:37:57;11.40;99.90
22779;DHT22;11556;51.194;3.800;2024-02-21T10:40:27;11.40;99.90
22779;DHT22;11556;51.194;3.800;2024-02-21T10:43:00;11.20;99.90
22779;DHT22;11556;51.194;3.800;2024-02-21T10:45:30;11.30;99.90
22779;DHT22;11556;51.194;3.800;2024-02-21T10:48:20;11.30;99.90
22779;DHT22;11556;51.194;3.800;2024-02-21T10:50:57;11.40;99.90
22779;DHT22;11556;51.194;3.800;2024-02-21T10:56:26;11.20;99.90
22779;DHT22;11556;51.194;3.800;2024-02-21T10:58:54;11.20;99.90
22779;DHT22;11556;51.194;3.800;2024-02-21T11:01:22;11.20;99.90
22779;DHT22;11556;51.194;3.800;2024-02-21T11:03:52;11.20;99.90
22779;DHT22;11556;51.194;3.800;2024-02-21T11:06:19;11.00;99.90
22779;DHT22;11556;51.194;3.800;2024-02-21T11:08:45;11.00;99.90
22779;DHT22;11556;51.194;3.800;2024-02-21T11:11:13;11.00;99.90
22779;DHT22;11556;51.194;3.800;2024-02-21T11:13:44;11.10;99.90
22779;DHT22;11556;51.194;3.800;2024-02-21T11:16:20;11.20;99.90
22779;DHT22;11556;51.194;3.800;2024-02-21T11:18:46;11.30;99.90
22779;DHT22;11556;51.194;3.800;2024-02-21T11:21:12;11.40;99.90
22779;DHT22;11556;51.194;3.800;2024-02-21T11:23:38;11.40;99.90
22779;DHT22;11556;51.194;3.800;2024-02-21T11:26:18;11.30;99.90
22779;DHT22;11556;51.194;3.800;2024-02-21T11:29:02;11.40;99.90
22779;DHT22;11556;51.194;3.800;2024-02-21T11:31:40;11.10;99.90
22779;DHT22;11556;51.194;3.800;2024-02-21T11:34:12;11.10;99.90
22779;DHT22;11556;51.194;3.800;2024-02-21T11:36:51;11.20;99.90
22779;DHT22;11556;51.194;3.800;2024-02-21T11:39:26;11.20;99.90
22779;DHT22;11556;51.194;3.800;2024-02-21T11:42:05;11.10;99.90
22779;DHT22;11556;51.194;3.800;2024-02-21T11:44:33;11.10;99.90
22779;DHT22;11556;51.194;3.800;2024-02-21T11:46:59;11.20;99.90
22779;DHT22;11556;51.194;3.800;2024-02-21T11:49:28;11.10;99.90
22779;DHT22;11556;51.194;3.800;2024-02-21T11:52:03;11.10;99.90
22779;DHT22;11556;51.194;3.800;2024-02-21T11:54:32;11.10;99.90
22779;DHT22;11556;51.194;3.800;2024-02-21T11:56:58;11.20;99.90
22779;DHT22;11556;51.194;3.800;2024-02-21T11:59:24;11.10;99.90
22779;DHT22;11556;51.194;3.800;2024-02-21T12:01:50;11.00;99.90
22779;DHT22;11556;51.194;3.800;2024-02-21T12:04:18;10.90;99.90
22779;DHT22;11556;51.194;3.800;2024-02-21T12:06:45;11.00;99.90
22779;DHT22;11556;51.194;3.800;2024-02-21T12:09:14;11.10;99.90
22779;DHT22;11556;51.194;3.800;2024-02-21T12:11:41;11.10;99.90
22779;DHT22;11556;51.194;3.800;2024-02-21T12:14:07;11.10;99.90
22779;DHT22;11556;51.194;3.800;2024-02-21T12:16:34;11.00;99.90
22779;DHT22;11556;51.194;3.800;2024-02-21T12:19:02;11.00;99.90
22779;DHT22;11556;51.194;3.800;2024-02-21T12:21:35;11.00;99.90
22779;DHT22;11556;51.194;3.800;2024-02-21T12:24:25;11.20;99.90
22779;DHT22;11556;51.194;3.800;2024-02-21T12:26:51;11.20;99.90
22779;DHT22;11556;51.194;3.800;2024-02-21T12:29:20;11.20;99.90
22779;DHT22;11556;51.194;3.800;2024-02-21T12:31:46;10.90;99.90
22779;DHT22;11556;51.194;3.800;2024-02-21T12:34:12;11.00;99.90
22779;DHT22;11556;51.194;3.800;2024-02-21T12:36:43;11.00;99.90
22779;DHT22;11556;51.194;3.800;2024-02-21T12:39:09;11.10;99.90
22779;DHT22;11556;51.194;3.800;2024-02-21T12:41:36;11.20;99.90
22779;DHT22;11556;51.194;3.800;2024-02-21T12:44:04;11.30;99.90
22779;DHT22;11556;51.194;3.800;2024-02-21T12:46:33;11.20;99.90
22779;DHT22;11556;51.194;3.800;2024-02-21T12:48:58;11.20;99.90
22779;DHT22;11556;51.194;3.800;2024-02-21T12:51:24;11.10;99.90
22779;DHT22;11556;51.194;3.800;2024-02-21T12:53:49;11.20;99.90
22779;DHT22;11556;51.194;3.800;2024-02-21T12:56:16;11.40;99.90
22779;DHT22;11556;51.194;3.800;2024-02-21T12:58:41;11.40;99.90
22779;DHT22;11556;51.194;3.800;2024-02-21T13:01:07;11.30;99.90
22779;DHT22;11556;51.194;3.800;2024-02-21T13:03:33;11.40;99.90
22779;DHT22;11556;51.194;3.800;2024-02-21T13:05:58;11.50;99.90
22779;DHT22;11556;51.194;3.800;2024-02-21T13:08:25;11.50;99.90
22779;DHT22;11556;51.194;3.800;2024-02-21T13:10:50;11.30;99.90
22779;DHT22;11556;51.194;3.800;2024-02-21T13:13:16;11.30;99.90
22779;DHT22;11556;51.194;3.800;2024-02-21T13:15:42;11.30;99.90
22779;DHT22;11556;51.194;3.800;2024-02-21T13:18:10;11.40;99.90
22779;DHT22;11556;51.194;3.800;2024-02-21T13:20:36;11.20;99.90
22779;DHT22;11556;51.194;3.800;2024-02-21T13:23:02;11.10;99.90
22779;DHT22;11556;51.194;3.800;2024-02-21T13:25:28;10.90;99.90
22779;DHT22;11556;51.194;3.800;2024-02-21T13:27:54;10.90;99.90
22779;DHT22;11556;51.194;3.800;2024-02-21T13:30:20;10.80;99.90
22779;DHT22;11556;51.194;3.800;2024-02-21T13:32:46;10.90;99.90
22779;DHT22;11556;51.194;3.800;2024-02-21T13:35:12;10.70;99.90
22779;DHT22;11556;51.194;3.800;2024-02-21T13:37:41;10.60;99.90
22779;DHT22;11556;51.194;3.800;2024-02-21T13:40:08;10.50;99.90
22779;DHT22;11556;51.194;3.800;2024-02-21T13:42:37;10.50;99.90
22779;DHT22;11556;51.194;3.800;2024-02-21T13:45:03;10.70;99.90
22779;DHT22;11556;51.194;3.800;2024-02-21T13:47:30;10.60;99.90
22779;DHT22;11556;51.194;3.800;2024-02-21T13:49:56;10.60;99.90
22779;DHT22;11556;51.194;3.800;2024-02-21T13:52:22;10.50;99.90
22779;DHT22;11556;51.194;3.800;2024-02-21T13:54:48;10.40;99.90
22779;DHT22;11556;51.194;3.800;2024-02-21T13:57:13;10.40;99.90
22779;DHT22;11556;51.194;3.800;2024-02-21T13:59:42;10.20;99.90
22779;DHT22;11556;51.194;3.800;2024-02-21T14:02:08;10.30;99.90
22779;DHT22;11556;51.194;3.800;2024-02-21T14:04:34;10.30;99.90
22779;DHT22;11556;51.194;3.800;2024-02-21T14:07:00;10.20;99.90
22779;DHT22;11556;51.194;3.800;2024-02-21T14:09:26;10.20;99.90
22779;DHT22;11556;51.194;3.800;2024-02-21T14:11:52;10.10;99.90
22779;DHT22;11556;51.194;3.800;2024-02-21T14:14:18;10.20;99.90
22779;DHT22;11556;51.194;3.800;2024-02-21T14:16:44;10.20;99.90
22779;DHT22;11556;51.194;3.800;2024-02-21T14:19:10;10.10;99.90
22779;DHT22;11556;51.194;3.800;2024-02-21T14:21:37;10.20;99.90
22779;DHT22;11556;51.194;3.800;2024-02-21T14:24:06;10.20;99.90
22779;DHT22;11556;51.194;3.800;2024-02-21T14:26:32;10.20;99.90
22779;DHT22;11556;51.194;3.800;2024-02-21T14:28:58;10.00;99.90
22779;DHT22;11556;51.194;3.800;2024-02-21T14:31:24;10.00;99.90
22779;DHT22;11556;51.194;3.800;2024-02-21T14:33:50;10.00;99.90
22779;DHT22;11556;51.194;3.800;2024-02-21T14:36:16;9.90;99.90
22779;DHT22;11556;51.194;3.800;2024-02-21T14:38:42;10.00;99.90
22779;DHT22;11556;51.194;3.800;2024-02-21T14:41:09;10.00;99.90
22779;DHT22;11556;51.194;3.800;2024-02-21T14:43:34;9.90;99.90
22779;DHT22;11556;51.194;3.800;2024-02-21T14:46:01;9.90;99.90
22779;DHT22;11556;51.194;3.800;2024-02-21T14:48:30;10.00;99.90
22779;DHT22;11556;51.194;3.800;2024-02-21T14:50:59;9.90;99.90
22779;DHT22;11556;51.194;3.800;2024-02-21T14:53:25;9.90;99.90
22779;DHT22;11556;51.194;3.800;2024-02-21T14:55:51;10.00;99.90
22779;DHT22;11556;51.194;3.800;2024-02-21T14:58:17;10.00;99.90
22779;DHT22;11556;51.194;3.800;2024-02-21T15:00:44;10.00;99.90
22779;DHT22;11556;51.194;3.800;2024-02-21T15:03:10;9.90;99.90
22779;DHT22;11556;51.194;3.800;2024-02-21T15:05:36;10.10;99.90
22779;DHT22;11556;51.194;3.800;2024-02-21T15:08:04;10.00;99.90
22779;DHT22;11556;51.194;3.800;2024-02-21T15:10:29;9.90;99.90
22779;DHT22;11556;51.194;3.800;2024-02-21T15:12:55;9.90;99.90
22779;DHT22;11556;51.194;3.800;2024-02-21T15:15:21;9.90;99.90
22779;DHT22;11556;51.194;3.800;2024-02-21T15:17:47;9.90;99.90
22779;DHT22;11556;51.194;3.800;2024-02-21T15:20:13;9.90;99.90
22779;DHT22;11556;51.194;3.800;2024-02-21T15:22:38;9.80;99.90
22779;DHT22;11556;51.194;3.800;2024-02-21T15:25:04;9.80;99.90
22779;DHT22;11556;51.194;3.800;2024-02-21T15:27:30;9.80;99.90
22779;DHT22;11556;51.194;3.800;2024-02-21T15:29:56;9.90;99.90
22779;DHT22;11556;51.194;3.800;2024-02-21T15:32:25;9.90;99.90
22779;DHT22;11556;51.194;3.800;2024-02-21T15:34:51;9.90;99.90
22779;DHT22;11556;51.194;3.800;2024-02-21T15:37:16;9.90;99.90